Time;durP1;ratioP1;P1;durP2;ratioP2;P2;SDS_P1;SDS_P2;PMS_P1;PMS_P2;Temp;Humidity;BMP_temperature;BMP_pressure;BME280_temperature;BME280_humidity;BME280_pressure;Samples;Min_cycle;Max_cycle;Signal;HPM_P1;HPM_P2
2022/02/04 00:22:22;;;;;;;21.40;13.87;;;;;;;9.47;63.19;97333.00;5041977;28;20917;-70
2022/02/04 00:24:29;;;;;;;22.77;14.47;;;;;;;9.51;63.02;97323.91;5031908;28;20434;-70
2022/02/04 00:27:02;;;;;;;22.90;14.57;;;;;;;9.57;62.75;97335.59;5048810;28;20422;-70
2022/02/04 00:29:34;;;;;;;18.67;13.53;;;;;;;9.57;63.11;97331.19;5032756;28;20183;-70
2022/02/04 00:32:05;;;;;;;20.03;12.77;;;;;;;9.61;62.99;97324.69;5039089;28;20486;-70
2022/02/04 00:34:38;;;;;;;18.20;12.80;;;;;;;9.64;62.66;97329.66;5035351;28;20540;-70
2022/02/04 00:39:37;;;;;;;14.77;11.93;;;;;;;9.70;63.10;97333.50;5048317;28;20729;-70
2022/02/04 00:42:07;;;;;;;16.73;11.70;;;;;;;9.72;62.66;97335.94;5033412;28;20246;-70
2022/02/04 00:44:33;;;;;;;15.90;11.03;;;;;;;9.70;63.18;97330.88;5033222;28;20513;-70
2022/02/04 00:47:05;;;;;;;16.60;12.00;;;;;;;9.74;62.96;97334.03;5037495;28;20525;-70
2022/02/04 00:52:22;;;;;;;14.80;11.80;;;;;;;9.71;63.57;97335.13;5032947;28;20440;-70
2022/02/04 00:55:08;;;;;;;17.50;11.80;;;;;;;9.73;63.35;97348.06;5032858;28;20460;-71
2022/02/04 01:27:19;;;;;;;15.00;11.20;;;;;;;9.98;63.46;97367.56;5045957;28;20454;-70
2022/02/04 01:32:22;;;;;;;13.73;10.37;;;;;;;9.98;63.15;97363.13;5032082;28;20192;-70
2022/02/04 01:34:47;;;;;;;18.27;10.63;;;;;;;10.01;63.30;97363.81;5014354;28;20476;-70
2022/02/04 01:37:13;;;;;;;14.97;11.80;;;;;;;9.97;63.59;97360.66;5032556;28;20222;-71
2022/02/04 01:39:38;;;;;;;15.47;11.97;;;;;;;9.98;63.55;97367.56;5031949;28;20680;-70
2022/02/04 01:42:04;;;;;;;15.77;11.60;;;;;;;9.94;63.54;97361.78;5032599;28;20308;-70
2022/02/04 01:44:29;;;;;;;15.50;11.40;;;;;;;9.96;63.81;97364.25;5032849;28;20190;-70
2022/02/04 01:46:55;;;;;;;13.03;10.90;;;;;;;9.92;63.85;97355.88;5055495;28;20325;-70
2022/02/04 01:49:24;;;;;;;12.90;10.87;;;;;;;9.95;63.99;97358.19;5031955;28;20183;-70
2022/02/04 01:51:49;;;;;;;14.73;10.87;;;;;;;9.96;63.63;97362.44;5040434;28;20186;-70
2022/02/04 01:54:15;;;;;;;14.23;11.50;;;;;;;9.97;63.60;97356.22;5031096;28;20823;-70
2022/02/04 01:56:40;;;;;;;12.77;10.50;;;;;;;10.02;63.59;97353.19;5031878;28;20191;-70
2022/02/04 01:59:06;;;;;;;14.83;10.83;;;;;;;10.01;63.87;97355.94;5039708;28;20605;-70
2022/02/04 02:01:31;;;;;;;13.47;10.00;;;;;;;10.03;63.55;97361.88;5031682;28;20208;-70
2022/02/04 02:03:59;;;;;;;12.93;10.20;;;;;;;10.04;63.82;97364.34;5036573;28;20543;-70
2022/02/04 02:06:57;;;;;;;13.90;10.60;;;;;;;10.07;63.46;97358.00;5034152;28;20194;-69
2022/02/04 02:09:28;;;;;;;12.73;10.10;;;;;;;10.10;63.26;97358.53;5039643;28;20427;-70
2022/02/04 02:11:58;;;;;;;12.40;10.20;;;;;;;10.08;62.71;97352.63;5024461;28;20433;-70
2022/02/04 02:14:26;;;;;;;11.63;9.90;;;;;;;10.06;62.78;97359.78;5031385;28;20468;-69
2022/02/04 02:34:47;;;;;;;8.70;7.80;;;;;;;10.13;62.53;97353.00;5039462;28;20820;-70
2022/02/04 02:39:55;;;;;;;8.10;7.13;;;;;;;10.11;62.39;97352.34;5030299;28;20442;-70
2022/02/04 02:50:05;;;;;;;9.33;7.20;;;;;;;10.17;61.36;97340.44;5030843;28;20192;-71
2022/02/04 02:52:41;;;;;;;9.13;7.30;;;;;;;10.18;61.50;97342.09;5047635;28;20754;-70
2022/02/04 03:03:24;;;;;;;7.97;7.17;;;;;;;10.07;61.60;97345.72;4971980;28;20588;-71
2022/02/04 03:05:50;;;;;;;7.77;6.70;;;;;;;10.04;61.21;97350.44;4969346;28;20442;-71
2022/02/04 03:08:17;;;;;;;9.03;6.83;;;;;;;10.01;61.21;97350.72;4969148;28;20447;-70
2022/02/04 03:10:43;;;;;;;8.70;7.33;;;;;;;10.10;60.93;97344.59;4968781;28;20342;-70
2022/02/04 03:13:08;;;;;;;9.30;7.10;;;;;;;10.14;61.08;97351.19;4988755;28;21085;-71
2022/02/04 03:15:35;;;;;;;7.43;6.63;;;;;;;10.15;61.31;97351.03;4988322;28;20201;-71
2022/02/04 03:18:05;;;;;;;8.73;7.13;;;;;;;10.19;60.56;97350.75;4988908;28;20183;-70
2022/02/04 03:20:41;;;;;;;9.80;7.50;;;;;;;10.18;60.79;97347.34;4988183;28;20447;-71
2022/02/04 03:23:07;;;;;;;9.40;7.13;;;;;;;10.19;60.91;97359.47;4988166;28;20459;-70
2022/02/04 03:25:38;;;;;;;7.70;6.90;;;;;;;10.20;60.82;97358.50;4988243;28;20466;-70
2022/02/04 03:28:04;;;;;;;7.20;6.50;;;;;;;10.21;60.83;97367.97;4988812;28;20200;-71
2022/02/04 03:30:34;;;;;;;10.07;7.53;;;;;;;10.22;61.08;97364.38;5004321;28;20446;-71
2022/02/04 03:33:03;;;;;;;9.03;7.77;;;;;;;10.24;60.82;97367.69;4989754;28;20192;-71
2022/02/04 03:35:31;;;;;;;10.47;7.03;;;;;;;10.26;60.18;97360.50;5012925;28;20441;-69
2022/02/04 03:37:56;;;;;;;8.30;7.00;;;;;;;10.23;60.72;97366.03;5012548;28;20429;-72
2022/02/04 03:40:23;;;;;;;9.40;7.50;;;;;;;10.25;60.86;97360.66;5045369;28;20452;-70
2022/02/04 03:42:49;;;;;;;7.40;6.70;;;;;;;10.20;60.65;97361.13;5012216;28;20201;-70
2022/02/04 03:45:16;;;;;;;8.63;6.90;;;;;;;10.26;60.78;97365.75;5030212;28;20432;-70
2022/02/04 03:47:42;;;;;;;9.10;7.47;;;;;;;10.23;60.22;97360.81;5029847;28;20444;-70
2022/02/04 03:50:07;;;;;;;9.33;6.70;;;;;;;10.26;60.46;97362.31;5036930;28;20441;-70
2022/02/04 03:52:33;;;;;;;8.27;6.80;;;;;;;10.25;60.35;97368.53;5029876;28;20197;-71
2022/02/04 03:54:59;;;;;;;8.37;7.47;;;;;;;10.25;60.51;97366.72;5030888;28;20578;-70
2022/02/04 03:57:24;;;;;;;9.10;6.87;;;;;;;10.27;60.03;97366.59;5032842;28;20185;-70
2022/02/04 03:59:50;;;;;;;16.70;7.50;;;;;;;10.26;60.57;97371.00;5033199;28;20205;-70
2022/02/04 04:02:15;;;;;;;9.27;6.87;;;;;;;10.26;60.18;97370.19;5036772;28;20180;-70
2022/02/04 04:04:41;;;;;;;7.63;6.43;;;;;;;10.22;60.45;97368.81;5033051;28;20263;-70
2022/02/04 04:07:06;;;;;;;8.40;6.30;;;;;;;10.24;60.47;97372.13;5040119;28;20695;-70
2022/02/04 04:09:35;;;;;;;10.47;6.37;;;;;;;10.22;60.66;97374.88;5044371;28;20202;-70
2022/02/04 04:12:01;;;;;;;7.20;6.17;;;;;;;10.18;60.49;97377.91;5040079;28;20184;-70
2022/02/04 04:14:26;;;;;;;6.87;6.17;;;;;;;10.20;60.31;97382.06;5031941;28;20462;-70
2022/02/04 04:16:52;;;;;;;7.47;6.57;;;;;;;10.17;60.51;97379.72;5049016;28;20183;-70
2022/02/04 04:19:17;;;;;;;7.80;6.70;;;;;;;10.21;60.42;97388.94;5032713;28;20202;-70
2022/02/04 04:21:43;;;;;;;6.70;6.00;;;;;;;10.19;60.54;97384.81;5033052;28;20208;-70
2022/02/04 04:24:08;;;;;;;11.10;6.20;;;;;;;10.20;60.87;97379.44;5033426;28;20179;-70
2022/02/04 04:26:34;;;;;;;6.73;6.03;;;;;;;10.10;60.98;97376.88;5041488;28;20261;-70
2022/02/04 04:28:59;;;;;;;6.87;6.17;;;;;;;10.17;60.79;97386.75;5048711;28;20176;-70
2022/02/04 04:31:24;;;;;;;7.70;5.80;;;;;;;10.08;60.87;97378.81;5030645;28;20283;-70
2022/02/04 04:33:50;;;;;;;7.17;5.70;;;;;;;10.17;60.74;97387.59;5048666;28;20196;-70
2022/02/04 04:36:17;;;;;;;7.60;6.30;;;;;;;10.14;60.59;97386.06;5033224;28;20758;-70
2022/02/04 04:39:06;;;;;;;7.30;6.57;;;;;;;10.12;61.19;97382.78;5043206;28;20267;-70
2022/02/04 04:44:30;;;;;;;7.90;6.23;;;;;;;10.11;61.03;97401.25;5048772;28;20424;-69
2022/02/04 05:27:58;;;;;;;9.97;8.90;;;;;;;10.04;61.71;97390.53;5051560;28;20425;-70
2022/02/04 05:30:23;;;;;;;9.43;7.80;;;;;;;9.97;61.27;97398.13;5033320;28;20507;-69
2022/02/04 05:32:49;;;;;;;8.20;7.20;;;;;;;9.98;61.14;97394.53;5049324;28;20429;-70
2022/02/04 05:35:17;;;;;;;6.90;6.20;;;;;;;9.88;60.75;97404.22;5044949;28;20183;-70
2022/02/04 05:37:46;;;;;;;8.20;6.13;;;;;;;9.86;61.35;97405.34;5050974;28;20275;-70
2022/02/04 05:40:15;;;;;;;7.63;6.50;;;;;;;9.87;61.44;97402.59;5051608;28;20438;-71
2022/02/04 05:42:49;;;;;;;7.27;6.47;;;;;;;9.73;61.28;97395.19;5034626;28;20434;-70
2022/02/04 05:45:20;;;;;;;9.03;7.30;;;;;;;9.74;61.75;97400.28;5051476;28;20947;-71
2022/02/04 05:47:49;;;;;;;10.53;6.83;;;;;;;9.81;61.64;97398.75;5038552;28;20432;-69
2022/02/04 05:53:27;;;;;;;8.30;6.63;;;;;;;9.67;61.28;97418.34;5031448;28;20965;-71
2022/02/04 05:55:51;;;;;;;7.30;5.93;;;;;;;9.73;61.22;97413.50;5040549;28;20199;-70
2022/02/04 05:58:37;;;;;;;7.30;6.37;;;;;;;9.83;61.65;97409.06;5040295;28;21009;-70
2022/02/04 06:01:23;;;;;;;7.80;6.67;;;;;;;9.86;61.59;97426.28;5025159;28;20447;-71
2022/02/04 06:24:42;;;;;;;13.20;7.87;;;;;;;9.75;62.85;97417.66;5041466;28;21964;-70
2022/02/04 06:27:08;;;;;;;9.30;7.87;;;;;;;9.73;62.35;97427.44;5050940;28;20435;-69
2022/02/04 06:29:33;;;;;;;8.63;6.50;;;;;;;9.78;62.79;97424.38;5047581;28;20708;-70
2022/02/04 06:31:59;;;;;;;9.30;7.20;;;;;;;9.81;62.38;97419.69;5031060;28;20208;-70
2022/02/04 06:34:24;;;;;;;9.30;6.50;;;;;;;9.84;62.39;97426.41;5046402;28;20261;-71
2022/02/04 06:36:50;;;;;;;7.60;6.33;;;;;;;9.83;62.53;97427.38;5032693;28;20647;-70
2022/02/04 06:39:15;;;;;;;6.80;6.07;;;;;;;9.86;62.89;97427.09;5046725;28;20185;-70
2022/02/04 06:41:41;;;;;;;7.93;6.37;;;;;;;9.89;62.54;97429.44;5038846;28;20285;-70
2022/02/04 06:44:06;;;;;;;9.83;7.00;;;;;;;9.88;62.32;97430.41;5036941;28;20255;-70
2022/02/04 06:46:32;;;;;;;8.33;6.93;;;;;;;9.85;62.02;97425.44;5049675;28;20185;-70
2022/02/04 06:48:57;;;;;;;8.40;7.03;;;;;;;9.85;62.44;97433.31;5030839;28;20209;-70
2022/02/04 06:51:23;;;;;;;6.93;5.90;;;;;;;9.78;62.24;97433.06;5038864;28;20288;-69
2022/02/04 06:53:48;;;;;;;9.67;6.00;;;;;;;9.79;61.96;97432.09;5066299;28;20205;-70
2022/02/04 06:56:14;;;;;;;7.67;6.10;;;;;;;9.80;62.20;97441.59;5050764;28;20182;-70
2022/02/04 06:58:39;;;;;;;8.47;7.37;;;;;;;9.79;62.35;97437.31;5032324;28;20182;-70
2022/02/04 07:01:05;;;;;;;7.50;6.27;;;;;;;9.82;62.31;97425.75;5045713;28;20201;-70
2022/02/04 07:03:34;;;;;;;12.53;8.23;;;;;;;9.60;63.31;97432.94;5029722;28;20182;-70
2022/02/04 07:06:02;;;;;;;7.50;6.70;;;;;;;9.70;63.02;97435.56;5018378;28;20197;-70
2022/02/04 07:08:35;;;;;;;13.57;7.00;;;;;;;9.65;62.83;97441.22;5041985;28;20424;-70
2022/02/04 07:21:41;;;;;;;10.47;6.50;;;;;;;9.61;63.43;97436.41;5042335;28;20445;-70
2022/02/04 07:24:07;;;;;;;9.57;6.77;;;;;;;9.70;63.00;97437.38;5050861;28;20426;-70
2022/02/04 07:26:33;;;;;;;8.63;6.80;;;;;;;9.59;62.63;97439.16;5065473;28;20184;-70
2022/02/04 07:28:59;;;;;;;7.70;6.80;;;;;;;9.58;62.22;97434.88;5046213;28;20177;-69
2022/02/04 07:31:30;;;;;;;11.40;6.80;;;;;;;9.62;63.16;97440.69;5053934;28;20233;-70
2022/02/04 07:42:07;;;;;;;9.57;7.20;;;;;;;9.50;62.69;97438.22;5047983;28;20430;-71
2022/02/04 07:44:33;;;;;;;12.70;9.20;;;;;;;9.54;63.37;97433.53;5052812;28;20427;-70
2022/02/04 07:46:58;;;;;;;11.33;8.00;;;;;;;9.62;63.19;97440.69;5054251;28;20547;-70
2022/02/04 07:49:24;;;;;;;10.10;7.73;;;;;;;9.70;62.51;97442.59;5053660;28;20181;-71
2022/02/04 07:51:49;;;;;;;9.27;7.80;;;;;;;9.72;63.00;97445.88;5054140;28;20190;-70
2022/02/04 07:54:15;;;;;;;10.33;7.97;;;;;;;9.80;62.62;97448.63;5052467;28;20206;-71
2022/02/04 07:56:40;;;;;;;12.00;7.50;;;;;;;9.59;62.74;97451.41;5053976;28;20191;-71
2022/02/04 07:59:08;;;;;;;9.93;8.17;;;;;;;9.61;62.78;97455.53;5050904;28;20257;-71
2022/02/04 08:01:34;;;;;;;10.70;8.20;;;;;;;9.69;63.15;97460.06;5053808;28;20204;-69
2022/02/04 08:04:08;;;;;;;9.80;7.80;;;;;;;9.61;63.28;97457.34;5069152;28;20411;-71
2022/02/04 08:06:38;;;;;;;9.70;7.90;;;;;;;9.64;63.45;97449.22;5035641;28;20271;-70
2022/02/04 08:09:15;;;;;;;9.90;7.63;;;;;;;9.66;63.03;97447.25;5053634;28;20460;-71
2022/02/04 08:11:58;;;;;;;11.07;8.73;;;;;;;9.69;63.20;97447.00;5048756;28;20794;-70
2022/02/04 08:14:45;;;;;;;14.03;11.23;;;;;;;9.74;62.91;97449.19;5046210;28;20474;-70
2022/02/04 08:51:53;;;;;;;8.13;6.60;;;;;;;14.73;47.53;97422.41;4975676;28;20532;-70
2022/02/04 08:54:28;;;;;;;6.60;5.90;;;;;;;15.51;47.34;97422.34;4991288;28;20559;-70
2022/02/04 08:57:02;;;;;;;10.27;6.40;;;;;;;16.00;45.97;97418.44;4991421;28;20424;-70
2022/02/04 09:02:18;;;;;;;8.23;6.10;;;;;;;16.89;43.36;97414.00;4990833;28;20430;-71
2022/02/04 09:04:47;;;;;;;6.97;6.27;;;;;;;17.17;42.41;97414.16;4990967;28;20913;-70
2022/02/04 09:07:15;;;;;;;6.57;5.97;;;;;;;16.42;42.88;97418.78;4991131;28;20463;-70
2022/02/04 09:09:50;;;;;;;7.80;6.00;;;;;;;16.02;43.93;97419.06;4999403;28;20442;-70
2022/02/04 09:20:28;;;;;;;7.50;6.53;;;;;;;13.77;48.46;97417.09;5052113;28;20445;-70
2022/02/04 09:22:53;;;;;;;6.60;5.90;;;;;;;13.39;49.66;97422.03;5019854;28;20941;-69
2022/02/04 09:25:19;;;;;;;7.40;5.70;;;;;;;13.16;50.50;97425.31;5052022;28;20422;-71
2022/02/04 09:27:45;;;;;;;8.40;5.83;;;;;;;13.22;51.14;97422.06;5048010;28;20191;-71
2022/02/04 09:30:13;;;;;;;7.47;6.13;;;;;;;13.15;50.99;97411.38;5034343;28;20200;-71
2022/02/04 09:32:39;;;;;;;8.93;6.23;;;;;;;13.17;50.97;97413.81;5034229;28;20965;-70
2022/02/04 09:35:07;;;;;;;7.80;5.80;;;;;;;12.90;51.31;97403.44;5052325;28;20552;-70
2022/02/04 09:37:33;;;;;;;6.70;5.37;;;;;;;12.80;51.50;97413.25;5051785;28;20191;-70
2022/02/04 09:39:59;;;;;;;6.67;5.00;;;;;;;12.70;51.50;97408.16;5066706;28;20438;-70
2022/02/04 09:42:26;;;;;;;4.77;4.00;;;;;;;12.22;52.80;97417.53;5051248;28;20428;-71
2022/02/04 09:44:51;;;;;;;8.80;4.47;;;;;;;12.40;52.93;97407.75;5051881;28;20175;-70
2022/02/04 09:47:23;;;;;;;6.23;4.37;;;;;;;12.53;52.42;97402.06;5044621;28;20492;-71
2022/02/04 09:49:54;;;;;;;5.93;4.97;;;;;;;12.55;52.20;97394.78;5051494;28;20210;-71
2022/02/04 10:14:35;;;;;;;5.93;4.23;;;;;;;12.03;52.38;97387.88;5051691;28;20463;-70
2022/02/04 10:17:17;;;;;;;4.73;4.20;;;;;;;12.14;52.41;97398.13;5030386;28;20524;-70
2022/02/04 10:22:29;;;;;;;4.87;4.10;;;;;;;12.29;51.62;97390.44;5046498;28;20414;-70
2022/02/04 10:25:02;;;;;;;4.40;4.00;;;;;;;12.21;52.17;97386.97;5050067;28;20414;-70
2022/02/04 10:27:31;;;;;;;4.47;3.77;;;;;;;12.32;52.64;97393.75;5051174;28;20557;-69
2022/02/04 10:30:08;;;;;;;4.27;3.87;;;;;;;12.27;52.83;97388.97;5036453;28;20482;-71
2022/02/04 10:32:41;;;;;;;4.00;3.53;;;;;;;12.38;52.05;97393.94;5014959;28;20418;-71
2022/02/04 10:35:20;;;;;;;7.70;4.93;;;;;;;12.43;52.43;97391.66;5035619;28;20470;-71
2022/02/04 10:38:14;;;;;;;4.47;3.20;;;;;;;12.02;52.03;97398.56;5027201;28;20426;-71
2022/02/04 10:43:54;;;;;;;4.90;2.87;;;;;;;12.07;52.14;97388.38;5029115;28;20422;-72
2022/02/04 10:54:21;;;;;;;2.50;2.30;;;;;;;11.73;52.33;97378.66;5043966;28;20981;-72
2022/02/04 11:04:33;;;;;;;2.77;2.57;;;;;;;11.66;53.00;97360.09;5047379;28;20175;-70
2022/02/04 11:09:48;;;;;;;4.17;3.03;;;;;;;12.05;52.85;97364.06;5069637;28;20587;-70
2022/02/04 11:54:56;;;;;;;1.83;1.70;;;;;;;11.96;50.84;97313.31;5054100;28;20468;-70
2022/02/04 11:57:28;;;;;;;1.63;1.53;;;;;;;11.94;50.62;97323.13;5038032;28;20798;-71
2022/02/04 12:00:15;;;;;;;2.27;1.93;;;;;;;11.46;50.82;97313.06;5039740;28;20450;-70
2022/02/04 12:02:41;;;;;;;2.50;1.90;;;;;;;11.37;51.36;97311.34;5032565;28;20510;-69
2022/02/04 12:05:11;;;;;;;2.90;2.47;;;;;;;10.98;52.91;97306.50;5028123;28;20446;-70
2022/02/04 12:08:01;;;;;;;4.47;2.43;;;;;;;11.03;52.76;97301.63;5030486;28;20189;-70
2022/02/04 12:10:29;;;;;;;3.93;2.50;;;;;;;11.31;52.20;97285.75;5033152;28;20461;-70
2022/02/04 12:12:59;;;;;;;6.60;3.83;;;;;;;11.56;52.14;97281.44;5023419;28;20427;-70
2022/02/04 12:15:27;;;;;;;4.53;2.97;;;;;;;11.52;52.18;97282.75;5033399;28;20891;-69
2022/02/04 12:17:54;;;;;;;3.23;1.97;;;;;;;11.12;53.01;97281.53;5033392;28;20466;-70
2022/02/04 12:20:44;;;;;;;2.43;1.70;;;;;;;11.25;52.52;97283.72;5064785;28;20866;-69
2022/02/04 12:23:32;;;;;;;2.37;1.80;;;;;;;11.30;52.00;97274.41;5053821;28;20482;-71
2022/02/04 12:26:04;;;;;;;2.60;1.80;;;;;;;11.11;51.64;97285.13;5053318;28;20941;-70
2022/02/04 12:28:41;;;;;;;1.40;1.30;;;;;;;11.02;51.13;97279.84;5078569;28;20435;-69
2022/02/04 12:31:14;;;;;;;2.07;1.63;;;;;;;10.94;52.15;97271.88;5053626;28;20437;-69
2022/02/04 12:33:41;;;;;;;2.77;1.40;;;;;;;11.18;51.31;97273.88;5053044;28;21170;-70
2022/02/04 12:36:23;;;;;;;1.50;1.40;;;;;;;11.33;51.25;97268.88;5053320;28;20793;-70
2022/02/04 12:38:52;;;;;;;1.87;1.70;;;;;;;11.37;50.93;97264.97;5037008;28;20509;-69
2022/02/04 12:41:41;;;;;;;1.97;1.30;;;;;;;11.39;50.13;97254.28;5053072;28;20788;-69
2022/02/04 12:44:10;;;;;;;1.60;1.50;;;;;;;11.09;51.29;97255.59;5046951;28;20855;-70
2022/02/04 12:46:40;;;;;;;1.53;1.43;;;;;;;11.22;50.74;97245.50;5033367;28;20489;-70
2022/02/04 12:49:07;;;;;;;2.50;1.50;;;;;;;11.45;50.54;97250.22;5033122;28;20431;-70
2022/02/04 12:51:46;;;;;;;5.23;1.97;;;;;;;11.12;51.38;97250.06;5065916;28;20441;-70
2022/02/04 12:54:24;;;;;;;2.87;1.70;;;;;;;11.22;50.42;97235.84;5053304;28;20552;-69
2022/02/04 13:10:07;;;;;;;1.83;1.70;;;;;;;11.55;48.63;97226.50;5047064;28;20461;-69
2022/02/04 13:13:00;;;;;;;3.20;2.07;;;;;;;11.40;49.01;97221.03;5052540;28;20925;-70
2022/02/04 13:15:28;;;;;;;2.20;1.90;;;;;;;11.50;48.52;97206.78;5052731;28;20211;-69
2022/02/04 13:17:54;;;;;;;3.00;2.23;;;;;;;11.13;49.13;97225.47;5051837;28;20417;-70
2022/02/04 13:20:22;;;;;;;3.60;2.60;;;;;;;10.98;48.89;97219.94;5068093;28;20464;-70
2022/02/04 13:22:50;;;;;;;2.70;2.10;;;;;;;11.17;48.84;97225.00;5040698;28;20427;-70
2022/02/04 13:25:21;;;;;;;2.90;2.20;;;;;;;11.16;49.10;97220.72;5032541;28;20767;-70
2022/02/04 13:28:05;;;;;;;2.13;1.93;;;;;;;11.14;49.14;97216.63;5031492;28;20420;-70
2022/02/04 13:30:39;;;;;;;2.13;1.93;;;;;;;10.89;49.28;97209.41;5029965;28;20446;-70
2022/02/04 13:33:18;;;;;;;3.70;1.93;;;;;;;11.15;49.06;97213.84;5046479;28;20504;-69
2022/02/04 13:35:56;;;;;;;3.93;2.17;;;;;;;11.01;49.08;97204.75;5052110;28;20457;-69
2022/02/04 13:38:29;;;;;;;2.07;1.70;;;;;;;11.09;48.82;97203.16;5052010;28;20853;-70
2022/02/04 13:41:19;;;;;;;3.70;1.80;;;;;;;10.84;49.18;97195.94;5052016;28;20485;-70
2022/02/04 13:44:04;;;;;;;2.73;1.70;;;;;;;10.51;50.19;97195.72;5051917;28;20453;-70
2022/02/04 13:46:37;;;;;;;1.70;1.60;;;;;;;10.73;49.78;97193.56;5051555;28;20790;-70
2022/02/04 13:49:20;;;;;;;2.40;2.20;;;;;;;10.87;49.48;97194.84;5052042;28;20425;-70
2022/02/04 13:54:28;;;;;;;3.20;1.63;;;;;;;10.78;49.62;97190.50;5082534;28;20462;-71
2022/02/04 14:00:24;;;;;;;1.70;1.60;;;;;;;11.03;49.41;97205.41;5061804;28;20428;-72
2022/02/04 14:02:56;;;;;;;1.60;1.50;;;;;;;11.13;49.77;97212.34;5049450;28;20481;-72
2022/02/04 14:05:33;;;;;;;7.37;3.30;;;;;;;11.13;49.66;97200.06;5082760;28;20418;-72
2022/02/04 14:08:07;;;;;;;2.17;1.97;;;;;;;10.74;49.97;97203.09;5049431;28;20506;-72
2022/02/04 14:10:43;;;;;;;2.00;1.77;;;;;;;10.92;50.08;97192.56;5033216;28;20454;-72
2022/02/04 14:13:11;;;;;;;4.27;1.93;;;;;;;11.02;50.00;97195.06;5031560;28;20426;-72
2022/02/04 14:15:38;;;;;;;3.40;2.33;;;;;;;11.23;49.75;97178.97;5031811;28;20933;-73
2022/02/04 14:18:09;;;;;;;1.93;1.73;;;;;;;10.85;50.42;97181.03;5047217;28;20497;-73
2022/02/04 14:20:37;;;;;;;2.10;1.90;;;;;;;10.77;50.18;97179.19;5040981;28;21019;-72
2022/02/04 14:23:07;;;;;;;2.87;1.67;;;;;;;10.81;49.96;97174.47;5033811;28;20452;-72
2022/02/04 14:25:43;;;;;;;1.50;1.40;;;;;;;10.91;49.84;97176.00;5042539;28;20430;-73
2022/02/04 14:28:11;;;;;;;2.33;1.80;;;;;;;10.81;50.10;97174.47;5045399;28;20516;-72
2022/02/04 14:30:38;;;;;;;2.00;1.50;;;;;;;11.05;49.63;97171.16;5034016;28;20450;-72
2022/02/04 14:36:00;;;;;;;1.90;1.50;;;;;;;10.85;49.83;97175.81;5051236;28;21038;-72
2022/02/04 14:49:20;;;;;;;1.93;1.60;;;;;;;10.90;49.66;97179.59;5051038;28;20223;-72
2022/02/04 14:49:49;;;;;;;4.47;2.53;;;;;;;11.07;49.55;97169.22;5050663;28;20437;-72
2022/02/04 15:00:10;;;;;;;1.23;1.13;;;;;;;10.80;50.20;97163.16;5036416;28;20327;-72
2022/02/04 15:02:28;;;;;;;2.80;1.67;;;;;;;10.96;50.17;97156.38;5046725;28;20433;-72
2022/02/04 15:04:55;;;;;;;2.07;1.40;;;;;;;10.98;50.12;97155.22;5050694;28;20453;-71
2022/02/04 15:07:21;;;;;;;1.63;1.43;;;;;;;10.77;50.41;97155.59;5033199;28;20422;-72
2022/02/04 15:09:53;;;;;;;3.33;1.30;;;;;;;10.79;50.20;97158.06;5042611;28;20487;-71
2022/02/04 15:12:19;;;;;;;1.20;1.10;;;;;;;10.76;50.47;97156.56;5049894;28;20210;-72
2022/02/04 15:14:44;;;;;;;2.10;1.07;;;;;;;10.61;50.55;97145.84;5045584;28;20491;-72
2022/02/04 15:17:10;;;;;;;1.30;1.03;;;;;;;10.58;50.62;97146.97;5044629;28;20504;-72
2022/02/04 15:19:36;;;;;;;1.60;1.10;;;;;;;10.53;50.95;97136.13;5049855;28;20190;-72
2022/02/04 15:22:07;;;;;;;1.47;1.30;;;;;;;10.70;50.71;97128.38;5042874;28;20224;-71
2022/02/04 15:24:32;;;;;;;1.50;1.30;;;;;;;10.61;51.00;97137.97;5049569;28;20435;-72
2022/02/04 15:26:59;;;;;;;1.63;1.20;;;;;;;10.62;50.89;97129.16;5058194;28;20955;-72
2022/02/04 15:29:24;;;;;;;1.40;1.13;;;;;;;10.76;50.66;97125.13;5039948;28;20605;-72
2022/02/04 15:31:54;;;;;;;2.63;1.40;;;;;;;10.87;50.18;97111.75;5030891;28;20530;-72
2022/02/04 15:34:22;;;;;;;1.70;1.30;;;;;;;10.63;50.76;97119.47;5030771;28;20261;-72
2022/02/04 15:36:48;;;;;;;1.30;1.20;;;;;;;10.48;51.34;97130.50;5045855;28;20423;-72
2022/02/04 15:39:22;;;;;;;2.13;1.30;;;;;;;10.13;52.06;97135.66;5030135;28;20436;-72
2022/02/04 15:41:51;;;;;;;1.40;1.30;;;;;;;10.52;51.13;97134.47;5030455;28;20959;-72
2022/02/04 15:44:24;;;;;;;2.80;1.80;;;;;;;10.78;51.02;97131.03;5030655;28;20430;-71
2022/02/04 15:55:54;;;;;;;3.10;2.80;;;;;;;10.58;51.33;97133.88;5034364;28;20459;-71
2022/02/04 15:57:53;;;;;;;3.50;3.20;;;;;;;10.56;51.51;97125.34;5027985;28;20501;-71
2022/02/04 16:05:41;;;;;;;4.77;1.73;;;;;;;10.58;51.49;97109.47;5018909;28;20422;-71
2022/02/04 16:08:08;;;;;;;2.70;1.63;;;;;;;10.27;51.97;97109.88;5049270;28;20436;-71
2022/02/04 16:10:49;;;;;;;1.70;1.30;;;;;;;10.38;52.00;97111.44;5033479;28;20484;-71
2022/02/04 16:13:29;;;;;;;2.40;1.57;;;;;;;10.46;51.67;97114.13;5035026;28;20428;-73
2022/02/04 16:16:01;;;;;;;3.03;1.40;;;;;;;10.48;51.57;97100.88;5034059;28;20434;-72
2022/02/04 16:18:32;;;;;;;1.63;1.30;;;;;;;10.54;51.68;97102.88;5034794;28;20441;-71
2022/02/04 16:28:41;;;;;;;1.13;0.90;;;;;;;10.15;52.61;97096.19;5035920;28;20440;-72
2022/02/04 16:31:13;;;;;;;1.10;0.90;;;;;;;10.38;52.15;97091.34;5029669;28;20445;-72
2022/02/04 16:33:39;;;;;;;1.40;1.20;;;;;;;10.35;52.12;97096.00;5034961;28;20518;-72
2022/02/04 16:36:11;;;;;;;2.27;1.20;;;;;;;10.41;51.98;97090.19;5085988;28;20423;-72
2022/02/04 16:38:37;;;;;;;3.00;1.50;;;;;;;10.23;52.42;97091.00;5051522;28;20275;-72
2022/02/04 16:41:09;;;;;;;1.50;1.10;;;;;;;10.29;52.25;97087.78;5046853;28;20508;-71
2022/02/04 16:43:35;;;;;;;8.10;1.60;;;;;;;10.33;51.82;97079.63;5083946;28;20200;-71
2022/02/04 16:46:06;;;;;;;1.23;1.10;;;;;;;10.38;51.74;97096.56;5045361;28;20797;-71
2022/02/04 16:48:35;;;;;;;1.33;1.13;;;;;;;10.06;52.71;97086.66;5052864;28;20421;-72
2022/02/04 16:51:01;;;;;;;5.17;1.40;;;;;;;10.12;52.07;97080.78;5052949;28;20472;-72
2022/02/04 16:53:29;;;;;;;1.30;1.20;;;;;;;10.29;51.74;97077.31;5052843;28;20433;-72
2022/02/04 16:55:55;;;;;;;1.53;1.30;;;;;;;10.38;51.42;97085.25;5040225;28;20426;-71
2022/02/04 16:58:20;;;;;;;1.40;1.30;;;;;;;10.43;51.78;97090.88;5035362;28;20516;-71
2022/02/04 17:00:46;;;;;;;2.20;1.70;;;;;;;10.39;51.58;97097.38;5052058;28;20727;-72
2022/02/04 17:03:12;;;;;;;1.70;1.60;;;;;;;10.19;51.56;97096.72;5051796;28;20241;-72
2022/02/04 17:06:02;;;;;;;1.40;1.30;;;;;;;10.31;51.47;97100.72;5052539;28;20187;-71
2022/02/04 17:11:01;;;;;;;2.33;1.10;;;;;;;10.04;51.86;97104.31;5032569;28;20816;-71
2022/02/04 17:13:28;;;;;;;4.10;1.10;;;;;;;10.01;51.73;97094.13;5033305;28;20805;-71
2022/02/04 17:15:53;;;;;;;1.73;1.10;;;;;;;10.12;51.55;97097.34;5052658;28;20452;-71
2022/02/04 17:18:18;;;;;;;1.40;1.03;;;;;;;9.80;52.38;97109.16;5052665;28;20985;-72
2022/02/04 17:20:45;;;;;;;1.37;1.27;;;;;;;9.86;52.33;97101.69;5051967;28;20572;-72
2022/02/04 17:23:12;;;;;;;1.40;1.10;;;;;;;10.10;51.67;97108.91;5052528;28;20190;-71
2022/02/04 17:25:39;;;;;;;2.37;1.03;;;;;;;10.24;51.27;97113.63;5052418;28;20422;-71
2022/02/04 17:28:05;;;;;;;1.47;1.30;;;;;;;9.90;51.63;97124.81;5051033;28;20932;-72
2022/02/04 17:30:31;;;;;;;1.40;1.30;;;;;;;10.15;51.45;97106.69;5017766;28;20579;-71
2022/02/04 17:32:57;;;;;;;1.40;1.03;;;;;;;10.14;51.33;97121.56;5052353;28;20420;-72
2022/02/04 17:35:25;;;;;;;1.83;1.20;;;;;;;10.14;51.03;97120.75;5052590;28;20493;-73
2022/02/04 17:37:54;;;;;;;1.50;1.20;;;;;;;10.14;51.15;97126.78;5044383;28;20516;-73
2022/02/04 17:40:19;;;;;;;1.70;1.13;;;;;;;10.21;50.56;97124.38;5051517;28;20468;-72
2022/02/04 17:42:46;;;;;;;1.50;1.10;;;;;;;10.28;51.26;97130.69;5034385;28;20461;-72
2022/02/04 17:45:17;;;;;;;1.80;1.10;;;;;;;10.36;50.85;97134.31;5047241;28;20179;-72
2022/02/04 17:47:43;;;;;;;1.10;1.00;;;;;;;10.07;51.09;97138.03;5051986;28;20423;-72
2022/02/04 17:50:14;;;;;;;1.67;1.20;;;;;;;9.96;51.17;97134.66;5063275;28;20450;-72
2022/02/04 17:52:47;;;;;;;1.30;1.10;;;;;;;10.10;51.18;97145.56;5030500;28;20713;-70
2022/02/04 17:55:22;;;;;;;1.30;1.20;;;;;;;10.13;51.10;97147.91;5032131;28;21030;-70
2022/02/04 17:57:55;;;;;;;1.50;1.07;;;;;;;10.16;51.09;97147.59;5030739;28;20426;-70
2022/02/04 18:08:18;;;;;;;2.00;1.27;;;;;;;10.18;52.15;97132.56;5032647;28;20455;-70
2022/02/04 18:10:44;;;;;;;1.40;1.20;;;;;;;10.14;52.21;97133.84;5031249;28;20851;-70
2022/02/04 18:13:09;;;;;;;2.67;1.23;;;;;;;10.27;52.13;97134.28;5029553;28;20269;-70